createdAt,value
2019-02-24T00:00:16.306Z,61.06
2019-02-24T00:03:12.896Z,61.01
2019-02-24T00:06:08.394Z,60.35
2019-02-24T00:09:05.858Z,61.87
2019-02-24T00:12:01.386Z,62.29
2019-02-24T00:14:58.146Z,62.44
2019-02-24T00:17:55.608Z,62.34
2019-02-24T00:20:52.120Z,62.86
2019-02-24T00:23:48.689Z,62.82
2019-02-24T00:26:45.192Z,63.06
2019-02-24T00:29:40.706Z,62.88
2019-02-24T00:32:37.221Z,62.63
2019-02-24T00:35:32.479Z,62.43
2019-02-24T00:38:30.763Z,63.04
2019-02-24T00:41:26.501Z,63.13
2019-02-24T00:44:23.028Z,63.26
2019-02-24T00:47:18.738Z,63.48
2019-02-24T00:50:15.448Z,63.28
2019-02-24T00:53:10.961Z,63.41
2019-02-24T00:56:07.451Z,62.42
2019-02-24T00:59:03.633Z,63.28
2019-02-24T01:02:00.013Z,63.35
2019-02-24T01:04:55.390Z,63.89
2019-02-24T01:07:52.197Z,64.07
2019-02-24T01:10:47.633Z,61.97
2019-02-24T01:13:44.405Z,62.61
2019-02-24T01:16:39.960Z,62.60
2019-02-24T01:19:37.761Z,63.31
2019-02-24T01:22:32.779Z,64.00
2019-02-24T01:25:29.825Z,64.74
2019-02-24T01:28:27.301Z,65.66
2019-02-24T01:31:24.045Z,65.65
2019-02-24T01:34:19.719Z,65.63
2019-02-24T01:37:16.234Z,65.37
2019-02-24T01:40:12.952Z,65.62
2019-02-24T01:43:09.407Z,65.48
2019-02-24T01:46:05.110Z,64.91
2019-02-24T01:49:03.156Z,64.53
2019-02-24T01:51:57.949Z,63.79
2019-02-24T01:54:54.461Z,64.23
2019-02-24T01:57:49.927Z,64.38
2019-02-24T02:00:46.435Z,64.26
2019-02-24T02:03:43.080Z,63.83
2019-02-24T02:06:38.809Z,63.89
2019-02-24T02:09:35.348Z,64.20
2019-02-24T02:12:31.170Z,64.32
2019-02-24T02:15:27.648Z,64.95
2019-02-24T02:18:23.102Z,65.21
2019-02-24T02:21:20.807Z,65.24
2019-02-24T02:24:16.211Z,65.84
2019-02-24T02:27:13.754Z,65.99
2019-02-24T02:30:10.241Z,65.79
2019-02-24T02:33:06.838Z,66.41
2019-02-24T02:36:02.311Z,65.84
2019-02-24T02:38:58.779Z,65.72
2019-02-24T02:41:54.272Z,66.37
2019-02-24T02:44:50.854Z,66.97
2019-02-24T02:47:46.362Z,66.96
2019-02-24T02:50:43.953Z,67.26
2019-02-24T02:53:39.398Z,67.01
2019-02-24T02:56:36.165Z,67.16
2019-02-24T02:59:31.477Z,67.12
2019-02-24T03:02:27.882Z,67.59
2019-02-24T03:05:23.590Z,68.02
2019-02-24T03:08:22.532Z,68.07
2019-02-24T03:11:17.944Z,67.67
2019-02-24T03:14:15.477Z,67.21
2019-02-24T03:17:10.816Z,67.54
2019-02-24T03:20:08.748Z,67.93
2019-02-24T03:23:03.559Z,67.31
2019-02-24T03:25:59.632Z,67.27
2019-02-24T03:29:03.845Z,67.39
2019-02-24T03:31:52.637Z,67.36
2019-02-24T03:34:48.321Z,67.89
2019-02-24T03:37:44.820Z,67.93
2019-02-24T03:40:40.901Z,68.81
2019-02-24T03:43:36.829Z,68.13
2019-02-24T03:46:31.774Z,68.48
2019-02-24T03:49:28.316Z,68.35
2019-02-24T03:52:24.031Z,68.52
2019-02-24T03:55:20.464Z,69.76
2019-02-24T03:58:15.944Z,69.80
2019-02-24T04:01:13.476Z,70.56
2019-02-24T04:04:08.764Z,69.70
2019-02-24T04:07:04.898Z,69.61
2019-02-24T04:10:00.005Z,70.72
2019-02-24T04:12:56.815Z,70.96
2019-02-24T04:15:52.541Z,71.33
2019-02-24T04:18:49.064Z,71.87
2019-02-24T04:21:46.364Z,70.93
2019-02-24T04:24:43.208Z,71.43
2019-02-24T04:27:38.987Z,72.05
2019-02-24T04:30:37.533Z,71.74
2019-02-24T04:33:32.249Z,72.29
2019-02-24T04:36:28.653Z,72.03
2019-02-24T04:39:24.157Z,71.81
2019-02-24T04:42:21.664Z,71.71
2019-02-24T04:45:17.173Z,71.56
2019-02-24T04:48:13.878Z,71.35
2019-02-24T04:51:10.428Z,71.16
2019-02-24T04:54:07.000Z,71.75
2019-02-24T04:57:02.369Z,71.94
2019-02-24T04:59:58.918Z,71.48
2019-02-24T05:02:55.535Z,72.32
2019-02-24T05:05:52.211Z,71.97
2019-02-24T05:08:48.771Z,71.82
2019-02-24T05:11:44.375Z,71.72
2019-02-24T05:14:41.750Z,71.86
2019-02-24T05:17:38.703Z,72.22
2019-02-24T05:20:34.701Z,72.38
2019-02-24T05:23:30.625Z,72.11
2019-02-24T05:26:27.149Z,72.40
2019-02-24T05:29:23.943Z,72.14
2019-02-24T05:32:22.557Z,72.44
2019-02-24T05:35:19.265Z,71.96
2019-02-24T05:38:15.553Z,71.59
2019-02-24T05:41:10.706Z,71.64
2019-02-24T05:44:07.211Z,72.14
2019-02-24T05:47:02.748Z,72.14
2019-02-24T05:49:59.330Z,72.52
2019-02-24T05:52:56.044Z,72.74
2019-02-24T05:55:52.519Z,71.57
2019-02-24T05:58:48.179Z,70.95
2019-02-24T06:01:44.642Z,71.27
2019-02-24T06:04:40.341Z,71.27
2019-02-24T06:07:36.008Z,71.42
2019-02-24T06:10:31.011Z,71.80
2019-02-24T06:13:27.667Z,71.12
2019-02-24T06:16:23.430Z,71.13
2019-02-24T06:19:20.166Z,71.44
2019-02-24T06:22:17.679Z,71.38
2019-02-24T06:25:14.436Z,71.69
2019-02-24T06:28:09.953Z,71.21
2019-02-24T06:31:06.241Z,71.24
2019-02-24T06:34:02.224Z,71.94
2019-02-24T06:36:58.725Z,71.34
2019-02-24T06:39:54.185Z,71.95
2019-02-24T06:42:50.687Z,71.89
2019-02-24T06:45:46.156Z,71.50
2019-02-24T06:48:42.574Z,71.13
2019-02-24T06:51:38.264Z,70.80
2019-02-24T06:54:34.418Z,70.20
2019-02-24T06:57:32.037Z,70.42
2019-02-24T07:00:27.458Z,70.33
2019-02-24T07:03:24.964Z,70.37
2019-02-24T07:06:20.680Z,69.98
2019-02-24T07:09:16.951Z,69.23
2019-02-24T07:12:12.453Z,69.11
2019-02-24T07:15:08.829Z,68.63
2019-02-24T07:18:04.349Z,68.70
2019-02-24T07:21:00.892Z,67.84
2019-02-24T07:23:59.832Z,67.02
2019-02-24T07:27:01.347Z,67.38
2019-02-24T07:29:58.131Z,67.68
2019-02-24T07:32:54.810Z,67.61
2019-02-24T07:35:52.606Z,67.08
2019-02-24T07:38:48.178Z,65.69
2019-02-24T07:41:44.839Z,65.89
2019-02-24T07:44:40.770Z,66.02
2019-02-24T07:47:38.337Z,65.24
2019-02-24T07:50:33.896Z,65.68
2019-02-24T07:53:31.613Z,64.90
2019-02-24T07:56:27.131Z,64.11
2019-02-24T07:59:23.873Z,65.30
2019-02-24T08:02:19.363Z,64.71
2019-02-24T08:05:16.008Z,64.87
2019-02-24T08:08:16.438Z,63.66
2019-02-24T08:11:07.648Z,62.69
2019-02-24T08:14:04.093Z,63.08
2019-02-24T08:17:00.882Z,62.84
2019-02-24T08:19:56.325Z,61.43
2019-02-24T08:22:52.796Z,61.83
2019-02-24T08:25:50.560Z,61.55
2019-02-24T08:28:46.221Z,59.94
2019-02-24T08:31:42.293Z,59.04
2019-02-24T08:34:41.519Z,59.07
2019-02-24T08:37:38.152Z,59.19
2019-02-24T08:40:36.678Z,58.59
2019-02-24T08:43:32.502Z,58.77
2019-02-24T08:46:28.387Z,58.01
2019-02-24T08:49:24.211Z,57.49
2019-02-24T08:52:20.902Z,56.72
2019-02-24T08:55:17.588Z,55.57
2019-02-24T08:58:13.613Z,54.35
2019-02-24T09:01:09.181Z,54.22
2019-02-24T09:04:05.927Z,54.43
2019-02-24T09:07:01.437Z,55.06
2019-02-24T09:09:58.338Z,55.30
2019-02-24T09:12:54.981Z,53.87
2019-02-24T09:15:53.293Z,54.19
2019-02-24T09:18:48.282Z,54.04
2019-02-24T09:21:43.931Z,52.88
2019-02-24T09:24:41.430Z,52.06
2019-02-24T09:27:37.157Z,51.34
2019-02-24T09:30:34.830Z,51.25
2019-02-24T09:33:30.602Z,51.34
2019-02-24T09:36:28.421Z,51.74
2019-02-24T09:39:24.938Z,51.60
2019-02-24T09:42:18.428Z,52.91
2019-02-24T09:45:14.106Z,50.04
2019-02-24T09:48:10.645Z,50.84
2019-02-24T09:51:06.250Z,51.19
2019-02-24T09:54:02.968Z,49.78
2019-02-24T09:57:00.715Z,49.21
2019-02-24T09:59:56.243Z,49.90
2019-02-24T10:02:52.796Z,49.06
2019-02-24T10:05:49.571Z,48.80
2019-02-24T10:08:46.540Z,48.83
2019-02-24T10:11:42.954Z,49.16
2019-02-24T10:14:39.519Z,47.38
2019-02-24T10:17:35.327Z,48.44
2019-02-24T10:20:31.831Z,49.25
2019-02-24T10:23:27.324Z,48.57
2019-02-24T10:26:25.764Z,49.10
2019-02-24T10:29:21.098Z,47.12
2019-02-24T10:32:17.834Z,47.59
2019-02-24T10:35:12.806Z,48.32
2019-02-24T10:38:09.329Z,48.35
2019-02-24T10:41:07.165Z,47.94
2019-02-24T10:44:02.983Z,47.68
2019-02-24T10:46:59.757Z,46.88
2019-02-24T10:49:56.201Z,47.35
2019-02-24T10:52:52.991Z,47.00
2019-02-24T10:55:48.724Z,46.60
2019-02-24T10:58:44.901Z,45.76
2019-02-24T11:01:41.646Z,46.98
2019-02-24T11:04:37.216Z,45.96
2019-02-24T11:07:35.000Z,45.82
2019-02-24T11:10:30.757Z,42.68
2019-02-24T11:13:27.465Z,42.71
2019-02-24T11:16:23.101Z,43.73
2019-02-24T11:19:18.187Z,42.83
2019-02-24T11:22:14.122Z,42.83
2019-02-24T11:25:09.654Z,44.09
2019-02-24T11:28:09.729Z,42.86
2019-02-24T11:31:05.278Z,40.97
2019-02-24T11:34:01.860Z,39.25
2019-02-24T11:36:58.472Z,38.28
2019-02-24T11:39:55.221Z,38.39
2019-02-24T11:42:52.971Z,36.69
2019-02-24T11:45:48.734Z,37.50
2019-02-24T11:48:44.496Z,37.34
2019-02-24T11:51:40.096Z,39.00
2019-02-24T11:54:36.617Z,39.62
2019-02-24T11:57:33.231Z,39.81
2019-02-24T12:00:29.781Z,36.07
2019-02-24T12:03:26.574Z,36.68
2019-02-24T12:06:22.254Z,37.68
2019-02-24T12:09:17.890Z,36.41
2019-02-24T12:12:13.382Z,37.14
2019-02-24T12:15:10.053Z,38.83
2019-02-24T12:18:06.562Z,41.41
2019-02-24T12:21:03.150Z,42.13
2019-02-24T12:23:58.730Z,41.91
2019-02-24T12:26:55.457Z,42.92
2019-02-24T12:29:52.301Z,42.68
2019-02-24T12:32:47.975Z,42.72
2019-02-24T12:35:44.619Z,42.89
2019-02-24T12:38:41.423Z,42.11
2019-02-24T12:41:37.992Z,41.51
2019-02-24T12:44:34.585Z,40.78
2019-02-24T12:47:33.415Z,36.07
2019-02-24T12:50:28.881Z,36.67
2019-02-24T12:53:24.668Z,38.24
2019-02-24T12:56:21.326Z,36.14
2019-02-24T12:59:18.043Z,35.74
2019-02-24T13:02:14.132Z,36.95
2019-02-24T13:05:09.785Z,36.33
2019-02-24T13:08:07.321Z,34.38
2019-02-24T13:11:02.823Z,33.97
2019-02-24T13:13:59.528Z,32.34
2019-02-24T13:16:56.316Z,33.07
2019-02-24T13:19:52.027Z,33.16
2019-02-24T13:22:49.376Z,32.66
2019-02-24T13:25:44.289Z,33.66
2019-02-24T13:28:50.182Z,34.01
2019-02-24T13:31:38.720Z,33.59
2019-02-24T13:34:35.464Z,33.87
2019-02-24T13:37:31.290Z,34.83
2019-02-24T13:40:27.651Z,33.59
2019-02-24T13:43:23.154Z,34.10
2019-02-24T13:46:19.446Z,33.23
2019-02-24T13:49:17.675Z,31.66
2019-02-24T13:52:12.394Z,32.95
2019-02-24T13:55:08.993Z,33.21
2019-02-24T13:58:04.762Z,33.40
2019-02-24T14:01:01.303Z,33.06
2019-02-24T14:03:56.824Z,33.23
2019-02-24T14:06:53.411Z,32.45
2019-02-24T14:09:49.703Z,33.03
2019-02-24T14:12:45.754Z,31.13
2019-02-24T14:15:42.589Z,31.65
2019-02-24T14:18:44.054Z,32.18
2019-02-24T14:21:40.757Z,32.88
2019-02-24T14:24:36.231Z,32.00
2019-02-24T14:27:32.738Z,32.00
2019-02-24T14:30:29.473Z,30.88
2019-02-24T14:33:35.992Z,28.85
2019-02-24T14:36:34.045Z,29.59
2019-02-24T14:39:31.789Z,29.57
2019-02-24T14:42:27.843Z,30.12
2019-02-24T14:45:24.930Z,30.45
2019-02-24T14:48:22.115Z,30.51
2019-02-24T14:51:18.041Z,31.46
2019-02-24T14:54:14.884Z,30.52
2019-02-24T14:57:11.627Z,32.57
2019-02-24T15:00:08.200Z,32.88
2019-02-24T15:03:04.741Z,32.93
2019-02-24T15:06:01.306Z,31.50
2019-02-24T15:09:02.163Z,31.38
2019-02-24T15:11:58.186Z,31.34
2019-02-24T15:14:55.089Z,30.65
2019-02-24T15:17:50.669Z,29.67
2019-02-24T15:20:49.396Z,30.11
2019-02-24T15:23:44.674Z,30.79
2019-02-24T15:26:41.546Z,29.67
2019-02-24T15:29:38.440Z,30.53
2019-02-24T15:32:35.006Z,28.57
2019-02-24T15:35:31.989Z,29.21
2019-02-24T15:38:27.652Z,30.20
2019-02-24T15:41:29.812Z,30.20
2019-02-24T15:44:20.511Z,29.68
2019-02-24T15:47:17.080Z,29.48
2019-02-24T15:50:13.792Z,30.71
2019-02-24T15:53:12.488Z,30.02
2019-02-24T15:56:08.077Z,29.10
2019-02-24T15:59:04.620Z,31.52
2019-02-24T16:02:02.282Z,30.75
2019-02-24T16:04:57.804Z,31.53
2019-02-24T16:07:54.320Z,32.52
2019-02-24T16:10:50.314Z,32.43
2019-02-24T16:16:41.013Z,32.28
2019-02-24T16:19:38.552Z,32.69
2019-02-24T16:22:34.110Z,33.78
2019-02-24T16:25:30.235Z,33.51
2019-02-24T16:28:25.787Z,32.65
2019-02-24T16:31:22.386Z,33.33
2019-02-24T16:34:17.020Z,32.88
2019-02-24T16:37:13.627Z,33.01
2019-02-24T16:40:10.452Z,33.02
2019-02-24T16:43:06.051Z,33.06
2019-02-24T16:46:02.829Z,32.94
2019-02-24T16:48:58.016Z,33.95
2019-02-24T16:51:54.795Z,34.54
2019-02-24T16:54:52.797Z,33.94
2019-02-24T16:57:48.258Z,34.10
2019-02-24T17:00:44.776Z,34.91
2019-02-24T17:03:41.214Z,35.55
2019-02-24T17:06:40.943Z,36.07
2019-02-24T17:09:37.733Z,36.27
2019-02-24T17:12:35.434Z,36.83
2019-02-24T17:15:30.985Z,38.27
2019-02-24T17:18:27.514Z,37.34
2019-02-24T17:21:26.987Z,36.95
2019-02-24T17:24:22.025Z,37.58
2019-02-24T17:27:18.068Z,38.20
2019-02-24T17:30:13.479Z,39.51
2019-02-24T17:33:10.258Z,40.60
2019-02-24T17:36:07.624Z,40.56
2019-02-24T17:39:02.442Z,41.37
2019-02-24T17:41:58.842Z,41.79
2019-02-24T17:44:55.382Z,42.34
2019-02-24T17:47:50.597Z,42.38
2019-02-24T17:50:47.159Z,42.96
2019-02-24T17:53:44.931Z,44.64
2019-02-24T17:56:40.710Z,44.81
2019-02-24T17:59:40.434Z,45.80
2019-02-24T18:02:34.042Z,45.89
2019-02-24T18:05:30.661Z,46.44
2019-02-24T18:08:28.218Z,46.52
2019-02-24T18:11:21.828Z,46.36
2019-02-24T18:14:17.615Z,47.69
2019-02-24T18:17:14.147Z,48.71
2019-02-24T18:20:11.985Z,48.73
2019-02-24T18:23:08.459Z,49.50
2019-02-24T18:26:05.168Z,49.23
2019-02-24T18:29:00.627Z,48.90
2019-02-24T18:31:57.246Z,48.87
2019-02-24T18:34:53.162Z,49.60
2019-02-24T18:37:49.238Z,49.87
2019-02-24T18:40:45.961Z,49.79
2019-02-24T18:43:42.462Z,50.22
2019-02-24T18:46:39.248Z,49.95
2019-02-24T18:49:34.939Z,50.19
2019-02-24T18:52:33.907Z,50.45
2019-02-24T18:55:30.469Z,51.08
2019-02-24T18:58:28.764Z,51.20
2019-02-24T19:01:23.470Z,51.79
2019-02-24T19:04:20.610Z,52.14
2019-02-24T19:07:17.527Z,51.94
2019-02-24T19:10:13.552Z,51.94
2019-02-24T19:13:12.077Z,52.43
2019-02-24T19:16:07.845Z,53.03
2019-02-24T19:19:05.616Z,53.23
2019-02-24T19:22:01.305Z,53.44
2019-02-24T19:24:58.190Z,54.62
2019-02-24T19:27:59.451Z,55.44
2019-02-24T19:30:55.130Z,54.49
2019-02-24T19:33:53.799Z,55.43
2019-02-24T19:36:48.787Z,56.69
2019-02-24T19:39:46.732Z,57.43
2019-02-24T19:42:42.671Z,57.12
2019-02-24T19:45:40.432Z,57.20
2019-02-24T19:48:42.053Z,57.82
2019-02-24T19:51:32.968Z,58.15
2019-02-24T19:54:30.824Z,58.23
2019-02-24T19:57:27.147Z,58.24
2019-02-24T20:00:23.257Z,58.40
2019-02-24T20:03:20.769Z,58.68
2019-02-24T20:06:17.444Z,59.02
2019-02-24T20:09:14.206Z,59.44
2019-02-24T20:12:10.252Z,59.54
2019-02-24T20:15:09.535Z,59.04
2019-02-24T20:18:05.438Z,58.72
2019-02-24T20:21:08.022Z,59.29
2019-02-24T20:24:04.351Z,59.46
2019-02-24T20:27:01.041Z,59.99
2019-02-24T20:29:56.916Z,60.80
2019-02-24T20:32:53.283Z,61.17
2019-02-24T20:35:50.177Z,61.14
2019-02-24T20:38:45.905Z,61.38
2019-02-24T20:41:42.736Z,61.48
2019-02-24T20:44:39.527Z,61.84
2019-02-24T20:47:36.476Z,61.69
2019-02-24T20:50:31.607Z,61.86
2019-02-24T20:53:28.417Z,62.26
2019-02-24T20:56:23.680Z,62.48
2019-02-24T20:59:20.353Z,62.63
2019-02-24T21:02:17.492Z,62.86
2019-02-24T21:05:15.190Z,62.86
2019-02-24T21:08:11.734Z,62.30
2019-02-24T21:11:08.412Z,62.61
2019-02-24T21:14:06.092Z,62.78
2019-02-24T21:17:01.789Z,62.88
2019-02-24T21:19:59.442Z,63.25
2019-02-24T21:22:55.390Z,63.28
2019-02-24T21:25:52.751Z,63.67
2019-02-24T21:28:48.988Z,63.38
2019-02-24T21:31:45.920Z,63.47
2019-02-24T21:34:42.385Z,64.10
2019-02-24T21:37:40.084Z,64.35
2019-02-24T21:40:35.513Z,64.60
2019-02-24T21:43:32.067Z,64.78
2019-02-24T21:46:27.587Z,65.09
2019-02-24T21:49:24.051Z,65.29
2019-02-24T21:52:19.536Z,65.70
2019-02-24T21:55:17.057Z,65.89
2019-02-24T21:58:12.824Z,66.03
2019-02-24T22:01:09.340Z,66.33
2019-02-24T22:04:04.767Z,66.70
2019-02-24T22:07:01.543Z,67.04
2019-02-24T22:09:57.133Z,67.09
2019-02-24T22:12:54.073Z,67.25
2019-02-24T22:15:50.642Z,67.65
2019-02-24T22:18:47.263Z,67.86
2019-02-24T22:21:43.802Z,67.83
2019-02-24T22:24:40.483Z,68.16
2019-02-24T22:27:36.094Z,68.28
2019-02-24T22:30:33.480Z,68.47
2019-02-24T22:33:29.275Z,67.74
2019-02-24T22:36:25.352Z,67.83
2019-02-24T22:39:20.492Z,68.68
2019-02-24T22:42:17.028Z,68.82
2019-02-24T22:45:12.554Z,68.80
2019-02-24T22:48:08.660Z,68.72
2019-02-24T22:51:05.240Z,67.29
2019-02-24T22:54:00.755Z,67.72
2019-02-24T22:56:58.423Z,67.86
2019-02-24T22:59:53.625Z,68.11
2019-02-24T23:02:49.935Z,68.01
2019-02-24T23:05:47.449Z,68.60
2019-02-24T23:08:44.047Z,68.57
2019-02-24T23:11:39.517Z,68.90
2019-02-24T23:14:35.971Z,69.22
2019-02-24T23:17:32.442Z,69.49
2019-02-24T23:20:29.186Z,69.84
2019-02-24T23:23:24.865Z,70.06
2019-02-24T23:26:22.488Z,69.76
2019-02-24T23:29:18.085Z,70.48
2019-02-24T23:32:14.885Z,70.53
2019-02-24T23:35:10.040Z,70.64
2019-02-24T23:38:06.600Z,70.65
2019-02-24T23:41:02.186Z,70.87
2019-02-24T23:43:59.009Z,71.62
2019-02-24T23:46:54.968Z,71.92
2019-02-24T23:49:51.780Z,72.59
2019-02-24T23:52:47.538Z,72.78
2019-02-24T23:55:44.153Z,72.44
2019-02-24T23:58:39.614Z,72.46
